createdAt,value
2023-03-29T00:02:10.433Z,63.25
2023-03-29T00:04:40.023Z,64.57
2023-03-29T00:07:09.354Z,65.68
2023-03-29T00:09:38.533Z,63.58
2023-03-29T00:12:08.377Z,62.33
2023-03-29T00:14:37.550Z,65.38
2023-03-29T00:17:07.675Z,64.53
2023-03-29T00:19:38.014Z,66.97
2023-03-29T00:22:07.435Z,67.72
2023-03-29T00:24:37.870Z,69.55
2023-03-29T00:27:09.093Z,71.82
2023-03-29T00:29:39.072Z,80.07
2023-03-29T00:32:09.399Z,84.60
2023-03-29T00:34:38.499Z,83.88
2023-03-29T00:37:10.293Z,82.28
2023-03-29T00:39:43.156Z,81.63
2023-03-29T00:42:17.154Z,84.88
2023-03-29T00:45:08.618Z,89.18
2023-03-29T00:47:58.137Z,98.47
2023-03-29T00:50:42.400Z,104.40
2023-03-29T00:53:37.361Z,105.80
2023-03-29T00:56:15.120Z,110.45
2023-03-29T00:59:06.175Z,114.50
2023-03-29T01:01:47.051Z,109.07
2023-03-29T01:04:30.480Z,113.57
2023-03-29T01:07:44.105Z,111.00
2023-03-29T01:10:22.066Z,109.75
2023-03-29T01:13:01.887Z,110.47
2023-03-29T01:15:31.977Z,109.75
2023-03-29T01:18:02.839Z,106.72
2023-03-29T01:20:44.765Z,111.97
2023-03-29T01:23:32.669Z,112.60
2023-03-29T01:26:40.168Z,115.18
2023-03-29T01:29:17.824Z,120.13
2023-03-29T01:31:52.966Z,122.38
2023-03-29T01:34:48.063Z,129.43
2023-03-29T01:37:25.734Z,130.02
2023-03-29T01:39:55.636Z,132.68
2023-03-29T01:42:27.658Z,136.02
2023-03-29T01:45:09.158Z,137.40
2023-03-29T01:47:38.931Z,132.93
2023-03-29T01:50:17.132Z,135.35
2023-03-29T01:53:05.229Z,135.50
2023-03-29T01:55:45.143Z,133.40
2023-03-29T01:58:16.667Z,132.93
2023-03-29T02:00:47.277Z,143.65
2023-03-29T02:03:18.665Z,134.15
2023-03-29T02:05:49.299Z,136.48
2023-03-29T02:08:20.557Z,131.40
2023-03-29T02:10:50.389Z,128.48
2023-03-29T02:13:21.178Z,127.97
2023-03-29T02:15:50.972Z,128.05
2023-03-29T02:18:22.270Z,127.75
2023-03-29T02:20:53.671Z,125.68
2023-03-29T02:23:28.676Z,126.45
2023-03-29T02:25:59.308Z,124.75
2023-03-29T02:28:30.834Z,127.88
2023-03-29T02:31:15.974Z,123.78
2023-03-29T02:34:17.243Z,123.28
2023-03-29T02:36:52.254Z,118.20
2023-03-29T02:39:22.923Z,119.25
2023-03-29T02:41:55.966Z,112.18
2023-03-29T02:44:29.762Z,107.30
2023-03-29T02:49:31.888Z,95.45
2023-03-29T02:52:09.305Z,98.85
2023-03-29T02:54:44.235Z,81.95
2023-03-29T02:57:14.444Z,75.10
2023-03-29T02:59:45.818Z,69.65
2023-03-29T03:02:16.065Z,77.93
2023-03-29T03:04:45.944Z,86.95
2023-03-29T03:07:15.452Z,89.22
2023-03-29T03:09:44.986Z,89.63
2023-03-29T03:12:14.164Z,95.22
2023-03-29T03:14:44.398Z,80.18
2023-03-29T03:17:13.770Z,78.85
2023-03-29T03:19:43.302Z,63.30
2023-03-29T03:22:12.774Z,57.40
2023-03-29T03:24:42.829Z,61.25
2023-03-29T03:27:13.529Z,63.38
2023-03-29T03:29:43.546Z,58.28
2023-03-29T03:32:38.894Z,59.00
2023-03-29T03:35:40.368Z,52.67
2023-03-29T03:38:10.077Z,48.40
2023-03-29T03:40:39.601Z,38.35
2023-03-29T03:43:09.079Z,38.08
2023-03-29T03:45:39.005Z,36.15
2023-03-29T03:48:16.533Z,27.00
2023-03-29T03:51:00.348Z,35.92
2023-03-29T03:53:34.910Z,36.05
2023-03-29T03:56:17.538Z,33.95
2023-03-29T03:59:08.405Z,27.10
2023-03-29T04:01:51.794Z,17.75
2023-03-29T04:04:24.726Z,18.05
2023-03-29T04:07:06.682Z,17.88
2023-03-29T04:09:56.100Z,23.25
2023-03-29T04:12:41.862Z,24.75
2023-03-29T04:15:11.596Z,28.13
2023-03-29T04:17:46.300Z,28.58
2023-03-29T04:20:41.897Z,26.23
2023-03-29T04:23:12.584Z,27.00
2023-03-29T04:25:44.406Z,29.90
2023-03-29T04:28:40.935Z,27.38
2023-03-29T04:31:22.211Z,28.30
2023-03-29T04:34:14.291Z,33.17
2023-03-29T04:36:47.684Z,32.42
2023-03-29T04:39:21.425Z,28.85
2023-03-29T04:41:56.482Z,28.90
2023-03-29T04:44:29.251Z,26.52
2023-03-29T04:47:02.058Z,19.38
2023-03-29T04:50:33.881Z,19.95
2023-03-29T04:53:04.837Z,19.10
2023-03-29T04:55:34.259Z,14.88
2023-03-29T04:58:04.332Z,14.30
2023-03-29T05:00:36.325Z,18.58
2023-03-29T05:03:24.154Z,12.80
2023-03-29T05:06:13.175Z,13.95
2023-03-29T05:08:43.364Z,11.85
2023-03-29T05:11:26.406Z,12.07
2023-03-29T05:13:58.473Z,12.10
2023-03-29T05:16:31.219Z,11.98
2023-03-29T05:19:02.749Z,13.53
2023-03-29T05:21:35.420Z,9.48
2023-03-29T05:24:09.581Z,8.73
2023-03-29T05:26:56.427Z,8.52
2023-03-29T05:29:28.321Z,6.35
2023-03-29T05:32:09.735Z,7.88
2023-03-29T05:34:40.390Z,8.45
2023-03-29T05:37:10.052Z,8.93
2023-03-29T05:39:50.836Z,6.35
2023-03-29T05:42:24.761Z,6.95
2023-03-29T05:44:58.092Z,7.53
2023-03-29T05:47:27.664Z,5.40
2023-03-29T05:49:58.558Z,5.03
2023-03-29T05:52:28.716Z,7.47
2023-03-29T05:54:58.520Z,7.38
2023-03-29T05:57:28.695Z,5.82
2023-03-29T05:59:58.448Z,6.15
2023-03-29T06:02:29.807Z,5.35
2023-03-29T06:04:59.778Z,6.53
2023-03-29T06:07:42.228Z,5.93
2023-03-29T06:10:38.826Z,7.75
2023-03-29T06:13:29.307Z,5.88
2023-03-29T06:15:58.811Z,6.45
2023-03-29T06:18:29.363Z,6.47
2023-03-29T06:20:58.872Z,6.45
2023-03-29T06:23:28.540Z,6.05
2023-03-29T06:25:58.340Z,6.07
2023-03-29T06:28:28.029Z,6.05
2023-03-29T06:31:03.812Z,5.63
2023-03-29T06:33:39.276Z,5.50
2023-03-29T06:36:23.577Z,6.28
2023-03-29T06:38:53.475Z,5.63
2023-03-29T06:41:48.935Z,5.88
2023-03-29T06:44:37.304Z,5.40
2023-03-29T06:47:14.808Z,5.40
2023-03-29T06:49:44.339Z,5.75
2023-03-29T06:52:36.956Z,5.68
2023-03-29T06:55:09.063Z,5.30
2023-03-29T06:57:41.610Z,4.57
2023-03-29T07:00:20.531Z,4.63
2023-03-29T07:03:14.350Z,4.60
2023-03-29T07:05:43.804Z,4.82
2023-03-29T07:11:02.513Z,4.60
2023-03-29T07:13:33.992Z,5.13
2023-03-29T07:16:06.745Z,5.10
2023-03-29T07:19:02.489Z,4.40
2023-03-29T07:21:55.582Z,5.72
2023-03-29T07:24:36.307Z,6.10
2023-03-29T07:27:06.103Z,5.20
2023-03-29T07:29:35.665Z,5.43
2023-03-29T07:32:05.593Z,4.32
2023-03-29T07:34:44.444Z,4.72
2023-03-29T07:37:22.004Z,6.03
2023-03-29T07:39:52.722Z,5.43
2023-03-29T07:42:49.005Z,4.90
2023-03-29T07:45:26.644Z,5.03
2023-03-29T07:48:02.521Z,5.30
2023-03-29T07:50:48.812Z,5.22
2023-03-29T07:53:21.132Z,5.93
2023-03-29T07:55:51.849Z,6.22
2023-03-29T07:58:47.732Z,6.47
2023-03-29T08:01:20.522Z,5.00
2023-03-29T08:04:09.177Z,5.10
2023-03-29T08:06:58.139Z,5.78
2023-03-29T08:09:38.693Z,5.85
2023-03-29T08:12:08.710Z,4.80
2023-03-29T08:14:39.837Z,5.63
2023-03-29T08:17:17.944Z,6.45
2023-03-29T08:19:52.418Z,5.40
2023-03-29T08:22:24.315Z,4.68
2023-03-29T08:25:13.042Z,5.80
2023-03-29T08:27:50.782Z,5.00
2023-03-29T08:30:31.118Z,4.68
2023-03-29T08:33:01.116Z,4.95
2023-03-29T08:35:30.540Z,5.80
2023-03-29T08:38:15.525Z,4.95
2023-03-29T08:40:45.292Z,5.63
2023-03-29T08:43:24.432Z,5.57
2023-03-29T08:46:51.105Z,5.20
2023-03-29T08:49:33.789Z,6.45
2023-03-29T08:52:16.204Z,5.10
2023-03-29T08:54:51.061Z,5.07
2023-03-29T08:57:57.253Z,5.00
2023-03-29T09:00:56.781Z,5.70
2023-03-29T09:03:31.850Z,4.85
2023-03-29T09:06:14.881Z,5.30
2023-03-29T09:08:50.402Z,4.80
2023-03-29T09:11:53.015Z,5.07
2023-03-29T09:14:51.236Z,4.28
2023-03-29T09:17:56.123Z,4.18
2023-03-29T09:20:38.672Z,4.20
2023-03-29T09:23:13.364Z,4.22
2023-03-29T09:26:09.708Z,4.18
2023-03-29T09:29:42.397Z,4.30
2023-03-29T09:32:23.769Z,4.00
2023-03-29T09:35:20.263Z,4.90
2023-03-29T09:37:55.999Z,4.35
2023-03-29T09:40:41.387Z,4.32
2023-03-29T09:43:19.988Z,4.57
2023-03-29T09:45:57.255Z,4.72
2023-03-29T09:48:30.711Z,3.95
2023-03-29T09:51:03.923Z,4.78
2023-03-29T09:53:34.987Z,4.35
2023-03-29T09:56:35.895Z,4.13
2023-03-29T09:59:14.090Z,4.25
2023-03-29T10:01:48.983Z,3.90
2023-03-29T10:04:20.127Z,4.20
2023-03-29T10:06:57.553Z,4.38
2023-03-29T10:09:32.039Z,3.67
2023-03-29T10:12:17.697Z,4.55
2023-03-29T10:14:55.896Z,4.38
2023-03-29T10:17:31.348Z,5.63
2023-03-29T10:20:04.992Z,5.05
2023-03-29T10:22:43.027Z,4.53
2023-03-29T10:25:18.690Z,6.38
2023-03-29T10:27:50.162Z,6.50
2023-03-29T10:30:29.488Z,5.93
2023-03-29T10:33:01.327Z,7.43
2023-03-29T10:35:35.132Z,6.82
2023-03-29T10:38:17.879Z,6.85
2023-03-29T10:43:36.954Z,6.38
2023-03-29T10:46:14.487Z,6.75
2023-03-29T10:48:59.442Z,6.43
2023-03-29T10:51:35.695Z,9.25
2023-03-29T10:54:08.601Z,6.80
2023-03-29T10:56:42.618Z,7.22
2023-03-29T10:59:34.669Z,7.47
2023-03-29T11:02:30.663Z,8.40
2023-03-29T11:05:19.213Z,8.10
2023-03-29T11:08:09.892Z,8.27
2023-03-29T11:10:54.438Z,8.85
2023-03-29T11:13:35.151Z,7.28
2023-03-29T11:16:14.085Z,6.95
2023-03-29T11:19:14.169Z,8.00
2023-03-29T11:22:21.906Z,6.90
2023-03-29T11:25:14.405Z,7.70
2023-03-29T11:27:52.419Z,7.03
2023-03-29T11:31:03.714Z,6.88
2023-03-29T11:34:15.780Z,8.20
2023-03-29T11:36:59.754Z,7.72
2023-03-29T11:40:15.924Z,7.70
2023-03-29T11:42:50.072Z,7.00
2023-03-29T11:45:42.012Z,7.28
2023-03-29T11:48:25.682Z,8.18
2023-03-29T11:51:02.449Z,8.05
2023-03-29T11:53:57.510Z,7.75
2023-03-29T11:56:51.176Z,7.68
2023-03-29T11:59:42.228Z,7.90
2023-03-29T12:02:29.932Z,7.43
2023-03-29T12:05:10.955Z,7.22
2023-03-29T12:08:01.834Z,7.93
2023-03-29T12:10:51.029Z,6.85
2023-03-29T12:13:26.883Z,6.60
2023-03-29T12:16:45.450Z,6.10
2023-03-29T12:19:33.089Z,7.22
2023-03-29T12:22:03.507Z,6.20
2023-03-29T12:24:40.887Z,7.20
2023-03-29T12:27:25.250Z,7.00
2023-03-29T12:30:16.305Z,6.75
2023-03-29T12:32:54.567Z,7.30
2023-03-29T12:36:33.229Z,6.93
2023-03-29T12:39:24.388Z,7.30
2023-03-29T12:42:23.456Z,7.30
2023-03-29T12:45:36.358Z,7.60
2023-03-29T12:48:09.695Z,7.28
2023-03-29T12:50:52.046Z,7.93
2023-03-29T12:53:37.179Z,9.25
2023-03-29T12:56:21.908Z,7.82
2023-03-29T12:59:18.494Z,9.05
2023-03-29T13:02:26.661Z,8.98
2023-03-29T13:05:06.151Z,7.38
2023-03-29T13:08:01.004Z,7.55
2023-03-29T13:10:43.671Z,7.85
2023-03-29T13:13:20.818Z,8.50
2023-03-29T13:15:54.031Z,7.93
2023-03-29T13:18:54.495Z,7.28
2023-03-29T13:21:42.448Z,7.25
2023-03-29T13:24:17.975Z,6.50
2023-03-29T13:26:56.955Z,6.72
2023-03-29T13:29:41.192Z,7.60
2023-03-29T13:32:30.034Z,8.00
2023-03-29T13:35:38.625Z,8.70
2023-03-29T13:38:32.410Z,9.25
2023-03-29T13:43:56.269Z,10.05
2023-03-29T13:46:47.056Z,9.30
2023-03-29T13:49:31.117Z,9.82
2023-03-29T13:52:25.977Z,10.48
2023-03-29T13:55:19.529Z,11.93
2023-03-29T13:58:06.574Z,12.85
2023-03-29T14:00:46.067Z,13.10
2023-03-29T14:03:21.881Z,13.77
2023-03-29T14:06:04.133Z,13.30
2023-03-29T14:08:45.554Z,11.40
2023-03-29T14:11:38.511Z,11.15
2023-03-29T14:14:14.104Z,10.32
2023-03-29T14:16:48.616Z,10.55
2023-03-29T14:19:23.526Z,10.32
2023-03-29T14:22:03.102Z,10.93
2023-03-29T14:24:46.076Z,9.93
2023-03-29T14:27:16.497Z,9.57
2023-03-29T14:29:53.554Z,11.40
2023-03-29T14:32:31.204Z,10.98
2023-03-29T14:35:10.703Z,10.18
2023-03-29T14:37:47.510Z,10.18
2023-03-29T14:40:21.904Z,10.80
2023-03-29T14:42:54.183Z,9.48
2023-03-29T14:45:26.800Z,9.98
2023-03-29T14:47:57.109Z,8.63
2023-03-29T14:50:31.963Z,8.73
2023-03-29T14:53:07.206Z,9.65
2023-03-29T14:55:41.216Z,9.55
2023-03-29T14:58:25.650Z,9.43
2023-03-29T15:00:56.731Z,9.02
2023-03-29T15:03:30.477Z,8.43
2023-03-29T15:06:05.510Z,8.90
2023-03-29T15:08:45.796Z,8.50
2023-03-29T15:11:30.458Z,9.25
2023-03-29T15:14:15.124Z,11.20
2023-03-29T15:16:46.882Z,10.95
2023-03-29T15:19:21.562Z,11.30
2023-03-29T15:21:52.352Z,11.95
2023-03-29T15:24:33.800Z,14.25
2023-03-29T15:27:07.127Z,13.57
2023-03-29T15:29:42.800Z,12.98
2023-03-29T15:32:21.601Z,13.52
2023-03-29T15:35:01.647Z,12.18
2023-03-29T15:37:31.122Z,12.43
2023-03-29T15:40:00.211Z,12.30
2023-03-29T15:42:30.438Z,11.27
2023-03-29T15:44:59.866Z,10.93
2023-03-29T15:47:30.144Z,11.23
2023-03-29T15:49:59.517Z,10.45
2023-03-29T15:52:30.878Z,10.95
2023-03-29T15:55:00.285Z,10.52
2023-03-29T15:57:29.893Z,10.55
2023-03-29T15:59:59.668Z,10.85
2023-03-29T16:02:29.271Z,10.48
2023-03-29T16:04:58.922Z,10.55
2023-03-29T16:07:29.400Z,12.77
2023-03-29T16:09:58.825Z,14.05
2023-03-29T16:12:28.054Z,12.60
2023-03-29T16:14:57.461Z,12.70
2023-03-29T16:17:26.778Z,12.10
2023-03-29T16:19:56.067Z,12.80
2023-03-29T16:22:26.159Z,14.82
2023-03-29T16:24:55.327Z,13.55
2023-03-29T16:27:24.772Z,13.63
2023-03-29T16:29:54.046Z,13.40
2023-03-29T16:32:23.503Z,13.48
2023-03-29T16:34:53.443Z,12.90
2023-03-29T16:37:22.546Z,12.98
2023-03-29T16:39:52.619Z,12.05
2023-03-29T16:42:22.100Z,12.65
2023-03-29T16:44:51.775Z,12.38
2023-03-29T16:47:21.455Z,12.18
2023-03-29T16:49:51.041Z,13.40
2023-03-29T16:52:20.615Z,12.15
2023-03-29T16:54:50.250Z,12.77
2023-03-29T16:57:20.399Z,12.48
2023-03-29T16:59:50.326Z,15.25
2023-03-29T17:02:20.365Z,15.60
2023-03-29T17:04:49.872Z,15.98
2023-03-29T17:07:19.663Z,16.17
2023-03-29T17:09:49.626Z,15.95
2023-03-29T17:12:20.478Z,16.35
2023-03-29T17:14:51.248Z,17.45
2023-03-29T17:17:21.087Z,15.77
2023-03-29T17:19:51.885Z,15.27
2023-03-29T17:22:21.857Z,15.18
2023-03-29T17:24:52.776Z,15.07
2023-03-29T17:27:22.542Z,15.57
2023-03-29T17:29:52.934Z,15.25
2023-03-29T17:32:23.398Z,15.82
2023-03-29T17:34:55.481Z,14.95
2023-03-29T17:37:25.801Z,16.15
2023-03-29T17:39:57.147Z,14.75
2023-03-29T17:42:31.040Z,15.32
2023-03-29T17:45:02.288Z,13.68
2023-03-29T17:47:33.180Z,15.85
2023-03-29T17:50:05.780Z,13.93
2023-03-29T17:52:36.255Z,13.48
2023-03-29T17:55:07.217Z,12.60
2023-03-29T17:57:38.219Z,12.68
2023-03-29T18:00:14.693Z,12.27
2023-03-29T18:02:45.909Z,11.55
2023-03-29T18:05:17.829Z,11.60
2023-03-29T18:07:49.483Z,11.95
2023-03-29T18:10:21.553Z,11.63
2023-03-29T18:12:51.867Z,11.15
2023-03-29T18:15:23.015Z,11.95
2023-03-29T18:17:53.537Z,12.30
2023-03-29T18:20:25.403Z,11.70
2023-03-29T18:22:56.324Z,11.55
2023-03-29T18:25:27.576Z,11.57
2023-03-29T18:27:57.932Z,11.80
2023-03-29T18:30:29.285Z,11.95
2023-03-29T18:32:59.888Z,12.82
2023-03-29T18:35:30.792Z,12.55
2023-03-29T18:38:01.383Z,13.13
2023-03-29T18:40:32.415Z,12.90
2023-03-29T18:43:03.327Z,14.35
2023-03-29T18:45:34.265Z,15.82
2023-03-29T18:48:06.744Z,20.20
2023-03-29T18:50:37.462Z,27.25
2023-03-29T18:53:07.950Z,26.70
2023-03-29T18:55:38.388Z,33.70
2023-03-29T18:58:11.695Z,32.45
2023-03-29T19:00:45.264Z,25.70
2023-03-29T19:03:15.792Z,23.02
2023-03-29T19:05:46.197Z,24.23
2023-03-29T19:08:16.245Z,23.50
2023-03-29T19:10:45.607Z,23.35
2023-03-29T19:13:15.791Z,22.55
2023-03-29T19:15:46.774Z,18.10
2023-03-29T19:18:16.754Z,15.77
2023-03-29T19:20:46.824Z,15.60
2023-03-29T19:23:17.942Z,15.50
2023-03-29T19:25:59.329Z,15.88
2023-03-29T19:28:30.274Z,14.43
2023-03-29T19:31:02.441Z,14.88
2023-03-29T19:33:33.667Z,13.43
2023-03-29T19:36:04.456Z,13.73
2023-03-29T19:38:34.977Z,13.18
2023-03-29T19:41:09.163Z,14.45
2023-03-29T19:43:39.219Z,14.32
2023-03-29T19:46:14.458Z,14.73
2023-03-29T19:48:44.320Z,15.35
2023-03-29T19:51:14.320Z,14.98
2023-03-29T19:53:45.011Z,15.68
2023-03-29T19:56:15.898Z,16.42
2023-03-29T19:58:45.339Z,15.82
2023-03-29T20:01:19.186Z,15.73
2023-03-29T20:03:51.518Z,16.02
2023-03-29T20:06:22.580Z,17.07
2023-03-29T20:08:54.254Z,16.40
2023-03-29T20:11:25.734Z,16.23
2023-03-29T20:13:57.074Z,16.73
2023-03-29T20:16:28.126Z,15.70
2023-03-29T20:18:58.553Z,16.73
2023-03-29T20:21:28.715Z,16.80
2023-03-29T20:23:59.260Z,14.75
2023-03-29T20:26:30.296Z,15.15
2023-03-29T20:29:00.469Z,14.73
2023-03-29T20:31:31.338Z,15.27
2023-03-29T20:34:01.960Z,16.45
2023-03-29T20:36:33.245Z,16.83
2023-03-29T20:39:04.330Z,15.07
2023-03-29T20:41:34.867Z,15.63
2023-03-29T20:44:05.860Z,15.05
2023-03-29T20:46:35.970Z,14.20
2023-03-29T20:49:10.227Z,13.77
2023-03-29T20:51:40.303Z,13.70
2023-03-29T20:54:11.547Z,13.60
2023-03-29T20:56:43.473Z,13.55
2023-03-29T20:59:13.374Z,15.02
2023-03-29T21:01:43.767Z,14.00
2023-03-29T21:04:14.349Z,13.38
2023-03-29T21:06:46.747Z,13.93
2023-03-29T21:09:16.146Z,14.00
2023-03-29T21:11:46.163Z,13.55
2023-03-29T21:14:20.729Z,14.13
2023-03-29T21:16:50.937Z,14.50
2023-03-29T21:19:21.006Z,14.32
2023-03-29T21:21:53.430Z,14.63
2023-03-29T21:24:24.088Z,14.35
2023-03-29T21:26:53.758Z,13.73
2023-03-29T21:29:23.946Z,13.68
2023-03-29T21:31:54.129Z,13.05
2023-03-29T21:34:24.562Z,14.57
2023-03-29T21:36:55.112Z,13.40
2023-03-29T21:39:28.314Z,13.13
2023-03-29T21:42:00.500Z,13.18
2023-03-29T21:44:32.578Z,13.70
2023-03-29T21:47:04.256Z,13.85
2023-03-29T21:49:34.768Z,14.23
2023-03-29T21:52:04.810Z,13.02
2023-03-29T21:54:35.570Z,13.60
2023-03-29T21:57:05.820Z,12.68
2023-03-29T21:59:36.975Z,12.82
2023-03-29T22:02:07.215Z,12.27
2023-03-29T22:04:37.892Z,11.65
2023-03-29T22:07:11.759Z,12.32
2023-03-29T22:09:43.728Z,11.85
2023-03-29T22:12:13.322Z,12.65
2023-03-29T22:14:43.373Z,12.48
2023-03-29T22:17:13.112Z,12.82
2023-03-29T22:19:43.023Z,13.35
2023-03-29T22:22:16.054Z,14.70
2023-03-29T22:24:46.571Z,12.80
2023-03-29T22:27:16.492Z,13.98
2023-03-29T22:29:47.075Z,13.80
2023-03-29T22:32:18.312Z,13.98
2023-03-29T22:34:47.955Z,14.27
2023-03-29T22:37:17.673Z,13.60
2023-03-29T22:39:47.304Z,14.27
2023-03-29T22:42:17.597Z,14.38
2023-03-29T22:44:48.424Z,14.25
2023-03-29T22:47:18.639Z,14.32
2023-03-29T22:49:48.853Z,14.20
2023-03-29T22:52:18.841Z,15.25
2023-03-29T22:54:48.953Z,14.25
2023-03-29T22:57:19.375Z,14.85
2023-03-29T22:59:50.015Z,15.65
2023-03-29T23:02:20.370Z,16.58
2023-03-29T23:04:50.739Z,15.85
2023-03-29T23:07:20.940Z,15.13
2023-03-29T23:09:51.764Z,15.60
2023-03-29T23:12:22.547Z,15.43
2023-03-29T23:14:54.407Z,15.85
2023-03-29T23:17:25.328Z,16.70
2023-03-29T23:19:55.734Z,15.82
2023-03-29T23:22:26.420Z,15.45
2023-03-29T23:24:56.682Z,15.35
2023-03-29T23:27:27.306Z,15.40
2023-03-29T23:29:57.941Z,14.85
2023-03-29T23:32:28.415Z,15.50
2023-03-29T23:34:59.378Z,15.15
2023-03-29T23:37:29.511Z,15.15
2023-03-29T23:40:00.214Z,15.50
2023-03-29T23:42:31.635Z,14.32
2023-03-29T23:45:01.875Z,14.05
2023-03-29T23:47:32.519Z,12.85
2023-03-29T23:50:05.291Z,13.32
2023-03-29T23:52:36.926Z,13.57
2023-03-29T23:55:09.841Z,13.50
2023-03-29T23:57:45.201Z,11.90
